Time;durP1;ratioP1;P1;durP2;ratioP2;P2;SDS_P1;SDS_P2;PMS_P1;PMS_P2;Temp;Humidity;BMP_temperature;BMP_pressure;BME280_temperature;BME280_humidity;BME280_pressure;Samples;Min_cycle;Max_cycle;Signal;HPM_P1;HPM_P2
2024/03/23 00:00:50;;;;;;;13.33;7.00;;;7.80;99.90;;;;;;5046713;28;20200;-77
2024/03/23 00:03:20;;;;;;;14.07;6.67;;;7.80;99.90;;;;;;5049702;28;20220;-77
2024/03/23 00:05:50;;;;;;;14.30;6.20;;;7.80;99.90;;;;;;5055532;28;20212;-77
2024/03/23 00:08:20;;;;;;;13.17;7.07;;;7.70;99.90;;;;;;5049633;28;20241;-77
2024/03/23 00:10:50;;;;;;;16.33;5.60;;;7.70;99.90;;;;;;5053703;28;20252;-77
2024/03/23 00:13:20;;;;;;;12.40;6.07;;;7.70;99.90;;;;;;5056233;28;20720;-77
2024/03/23 00:15:50;;;;;;;13.40;6.33;;;7.60;99.90;;;;;;5059318;28;20203;-78
2024/03/23 00:18:23;;;;;;;10.47;5.63;;;7.60;99.90;;;;;;5057050;28;20203;-77
2024/03/23 00:20:55;;;;;;;10.30;4.67;;;7.50;99.90;;;;;;5057752;28;20574;-77
2024/03/23 00:23:24;;;;;;;10.60;3.83;;;7.40;99.90;;;;;;5058506;28;20616;-77
2024/03/23 00:25:55;;;;;;;9.40;4.00;;;7.40;99.90;;;;;;5046218;28;20230;-77
2024/03/23 00:28:25;;;;;;;10.10;3.97;;;7.50;99.90;;;;;;5055738;28;20245;-77
2024/03/23 00:30:55;;;;;;;7.70;3.70;;;7.50;99.90;;;;;;5057089;28;20258;-77
2024/03/23 00:33:25;;;;;;;10.13;4.13;;;7.50;99.90;;;;;;5049770;28;20226;-77
2024/03/23 00:35:56;;;;;;;11.77;3.53;;;7.50;99.90;;;;;;5059863;28;20600;-77
2024/03/23 00:38:25;;;;;;;9.67;3.70;;;7.50;99.90;;;;;;5054105;28;20689;-77
2024/03/23 00:40:58;;;;;;;12.73;4.27;;;7.60;99.90;;;;;;5055712;28;20592;-77
2024/03/23 00:43:28;;;;;;;8.43;3.63;;;7.50;99.90;;;;;;5061751;28;20223;-77
2024/03/23 00:45:58;;;;;;;13.13;3.80;;;7.40;99.90;;;;;;5058956;28;20576;-77
2024/03/23 00:48:28;;;;;;;11.77;3.73;;;7.40;99.90;;;;;;5062891;28;20603;-77
2024/03/23 00:50:58;;;;;;;8.53;3.10;;;7.30;99.90;;;;;;5051363;28;20227;-77
2024/03/23 00:53:28;;;;;;;11.33;3.70;;;7.40;99.90;;;;;;5049291;28;20756;-77
2024/03/23 00:55:56;;;;;;;10.87;4.00;;;7.30;99.90;;;;;;5039772;28;20203;-77
2024/03/23 00:58:22;;;;;;;10.07;3.80;;;7.30;99.90;;;;;;5048741;28;20249;-77
2024/03/23 01:00:49;;;;;;;10.83;4.60;;;7.30;99.90;;;;;;5049188;28;20227;-77
2024/03/23 01:03:15;;;;;;;10.70;4.20;;;7.30;99.90;;;;;;5051995;28;20222;-77
2024/03/23 01:05:42;;;;;;;9.93;3.97;;;7.30;99.90;;;;;;5055930;28;20715;-77
2024/03/23 01:08:07;;;;;;;8.83;3.80;;;7.20;99.90;;;;;;5059709;28;20234;-77
2024/03/23 01:10:34;;;;;;;12.77;4.43;;;7.10;99.90;;;;;;5055681;28;20253;-77
2024/03/23 01:13:02;;;;;;;11.00;4.30;;;7.10;99.90;;;;;;5056404;28;20635;-77
2024/03/23 01:15:29;;;;;;;8.67;3.93;;;7.00;99.90;;;;;;5054240;28;20203;-77
2024/03/23 01:17:54;;;;;;;13.47;4.50;;;7.00;99.90;;;;;;5056814;28;20225;-78
2024/03/23 01:20:21;;;;;;;10.07;3.80;;;7.00;99.90;;;;;;5060855;28;20280;-77
2024/03/23 01:22:47;;;;;;;12.50;4.00;;;7.00;99.90;;;;;;5059826;28;20650;-77
2024/03/23 01:25:14;;;;;;;11.07;4.20;;;7.10;99.90;;;;;;5054372;28;20195;-77
2024/03/23 01:27:40;;;;;;;9.87;4.00;;;7.10;99.90;;;;;;5052776;28;20238;-77
2024/03/23 01:30:09;;;;;;;14.47;4.60;;;7.10;99.90;;;;;;5051205;28;20238;-77
2024/03/23 01:32:35;;;;;;;8.83;3.97;;;7.10;99.90;;;;;;5054421;28;20281;-77
2024/03/23 01:35:02;;;;;;;9.13;3.70;;;6.90;99.90;;;;;;5055885;28;20234;-77
2024/03/23 01:37:29;;;;;;;9.90;4.03;;;6.80;99.90;;;;;;5060157;28;20200;-77
2024/03/23 01:39:56;;;;;;;10.30;3.87;;;6.90;99.90;;;;;;5060473;28;20285;-77
2024/03/23 01:42:22;;;;;;;12.30;4.70;;;6.80;99.90;;;;;;5057592;28;20297;-77
2024/03/23 01:44:49;;;;;;;11.10;4.30;;;7.00;99.90;;;;;;5057856;28;20257;-77
2024/03/23 01:47:17;;;;;;;12.13;4.17;;;7.00;99.90;;;;;;5055030;28;20693;-77
2024/03/23 01:49:44;;;;;;;12.23;4.10;;;7.00;99.90;;;;;;5049152;28;20209;-77
2024/03/23 01:52:10;;;;;;;14.40;4.47;;;7.00;99.90;;;;;;5051984;28;20268;-77
2024/03/23 01:54:37;;;;;;;14.23;4.77;;;6.90;99.90;;;;;;5042940;28;20207;-77
2024/03/23 01:57:04;;;;;;;10.07;4.23;;;6.90;99.90;;;;;;5054223;28;20238;-77
2024/03/23 01:59:31;;;;;;;10.47;4.20;;;6.90;99.90;;;;;;5050765;28;20296;-77
2024/03/23 02:01:57;;;;;;;9.10;4.10;;;6.90;99.90;;;;;;5051579;28;20305;-77
2024/03/23 02:04:25;;;;;;;9.87;3.77;;;6.90;99.90;;;;;;5050649;28;20648;-77
2024/03/23 02:06:52;;;;;;;11.80;3.80;;;6.80;99.90;;;;;;5055259;28;20203;-77
2024/03/23 02:09:18;;;;;;;14.37;4.63;;;6.80;99.90;;;;;;5052063;28;20200;-78
2024/03/23 02:11:44;;;;;;;11.83;4.00;;;6.80;99.90;;;;;;5052074;28;20227;-77
2024/03/23 02:14:12;;;;;;;11.10;3.77;;;6.80;99.90;;;;;;5057813;28;20198;-77
2024/03/23 02:16:38;;;;;;;11.00;4.67;;;6.90;99.90;;;;;;5061693;28;20260;-77
2024/03/23 02:19:05;;;;;;;9.87;4.03;;;6.80;99.90;;;;;;5052916;28;20713;-77
2024/03/23 02:21:32;;;;;;;15.13;4.37;;;6.70;99.90;;;;;;5057317;28;20223;-77
2024/03/23 02:24:01;;;;;;;14.73;4.27;;;6.60;99.90;;;;;;5060017;28;20290;-77
2024/03/23 02:26:27;;;;;;;13.80;4.50;;;6.70;99.90;;;;;;5059738;28;20628;-77
2024/03/23 02:28:54;;;;;;;10.80;4.37;;;6.80;99.90;;;;;;5061106;28;20282;-77
2024/03/23 02:31:20;;;;;;;10.70;3.77;;;6.80;99.90;;;;;;5060011;28;20243;-78
2024/03/23 02:33:47;;;;;;;13.50;4.13;;;6.70;99.90;;;;;;5057790;28;20202;-77
2024/03/23 02:36:13;;;;;;;15.47;4.70;;;6.70;99.90;;;;;;5058691;28;20252;-77
2024/03/23 02:38:40;;;;;;;9.90;4.17;;;6.70;99.90;;;;;;5060628;28;20593;-77
2024/03/23 02:41:07;;;;;;;11.37;3.77;;;6.60;99.90;;;;;;5056545;28;20238;-77
2024/03/23 02:43:34;;;;;;;12.87;4.37;;;6.50;99.90;;;;;;5056053;28;20716;-77
2024/03/23 02:46:02;;;;;;;8.07;4.40;;;6.70;99.90;;;;;;5059924;28;20240;-78
2024/03/23 02:48:28;;;;;;;11.53;3.33;;;6.60;99.90;;;;;;5047960;28;20306;-78
2024/03/23 02:50:55;;;;;;;13.67;3.93;;;6.50;99.90;;;;;;5049413;28;20752;-77
2024/03/23 02:53:21;;;;;;;6.43;2.97;;;6.50;99.90;;;;;;5042589;28;20653;-78
2024/03/23 02:55:48;;;;;;;11.40;3.13;;;6.60;99.90;;;;;;5042916;28;20232;-77
2024/03/23 02:58:15;;;;;;;9.27;3.33;;;6.60;99.90;;;;;;5044617;28;20227;-78
2024/03/23 03:00:42;;;;;;;9.00;3.13;;;6.60;99.90;;;;;;5046201;28;20208;-77
2024/03/23 03:03:08;;;;;;;10.90;3.67;;;6.50;99.90;;;;;;5052674;28;20246;-77
2024/03/23 03:05:35;;;;;;;11.03;3.77;;;6.50;99.90;;;;;;5045275;28;20241;-77
2024/03/23 03:08:01;;;;;;;9.97;4.03;;;6.50;99.90;;;;;;5043165;28;20236;-77
2024/03/23 03:10:28;;;;;;;10.77;3.80;;;6.40;99.90;;;;;;5051081;28;20221;-77
2024/03/23 03:12:54;;;;;;;9.57;3.73;;;6.50;99.90;;;;;;5051936;28;20230;-77
2024/03/23 03:15:23;;;;;;;12.43;3.87;;;6.50;99.90;;;;;;5055028;28;20676;-77
2024/03/23 03:17:49;;;;;;;10.47;3.70;;;6.50;99.90;;;;;;5057900;28;20611;-77
2024/03/23 03:20:17;;;;;;;12.30;4.03;;;6.60;99.90;;;;;;5054980;28;20210;-77
2024/03/23 03:22:43;;;;;;;10.30;3.50;;;6.60;99.90;;;;;;5044580;28;20231;-78
2024/03/23 03:25:10;;;;;;;10.27;4.07;;;6.60;99.90;;;;;;5055580;28;20571;-77
2024/03/23 03:27:36;;;;;;;9.93;3.53;;;6.70;99.90;;;;;;5051834;28;20227;-77
2024/03/23 03:30:05;;;;;;;8.73;3.93;;;6.60;99.90;;;;;;5054396;28;20246;-77
2024/03/23 03:32:33;;;;;;;9.13;3.87;;;6.50;99.90;;;;;;5054336;28;20228;-78
2024/03/23 03:35:00;;;;;;;12.63;4.27;;;6.60;99.90;;;;;;5060139;28;20583;-78
2024/03/23 03:37:26;;;;;;;9.33;3.90;;;6.80;99.90;;;;;;5063389;28;20237;-78
2024/03/23 03:39:52;;;;;;;11.80;5.77;;;6.80;99.90;;;;;;5054121;28;20640;-78
2024/03/23 03:42:18;;;;;;;15.17;4.60;;;6.70;99.90;;;;;;5059506;28;20283;-77
2024/03/23 03:44:45;;;;;;;9.40;4.53;;;6.70;99.90;;;;;;5056236;28;20239;-77
2024/03/23 03:47:11;;;;;;;11.90;4.80;;;6.80;99.90;;;;;;5053236;28;20727;-77
2024/03/23 03:49:39;;;;;;;11.90;5.00;;;6.80;99.90;;;;;;5048718;28;20388;-78
2024/03/23 03:52:06;;;;;;;13.93;5.47;;;6.80;99.90;;;;;;5049882;28;20230;-77
2024/03/23 03:54:33;;;;;;;10.70;4.67;;;6.70;99.90;;;;;;5037516;28;20203;-77
2024/03/23 03:56:59;;;;;;;13.23;5.83;;;6.70;99.90;;;;;;5044861;28;20238;-77
2024/03/23 03:59:27;;;;;;;12.93;4.90;;;6.80;99.90;;;;;;5046074;28;20253;-77
2024/03/23 04:01:53;;;;;;;14.57;4.83;;;6.70;99.90;;;;;;5046056;28;20273;-77
2024/03/23 04:04:20;;;;;;;15.97;5.73;;;6.70;99.90;;;;;;5044798;28;20199;-77
2024/03/23 04:06:47;;;;;;;11.00;4.10;;;6.60;99.90;;;;;;5050166;28;20754;-77
2024/03/23 04:09:15;;;;;;;9.77;3.90;;;6.60;99.90;;;;;;5041665;28;20199;-78
2024/03/23 04:11:40;;;;;;;11.80;4.20;;;6.60;99.90;;;;;;5048310;28;20386;-77
2024/03/23 04:14:07;;;;;;;9.50;4.23;;;6.60;99.90;;;;;;5050490;28;20266;-77
2024/03/23 04:16:35;;;;;;;11.03;3.73;;;6.60;99.90;;;;;;5052418;28;20259;-79
2024/03/23 04:19:02;;;;;;;10.50;4.07;;;6.60;99.90;;;;;;5047816;28;20203;-78
2024/03/23 04:21:27;;;;;;;12.20;3.80;;;6.60;99.90;;;;;;5053727;28;20646;-77
2024/03/23 04:23:56;;;;;;;11.20;4.20;;;6.50;99.90;;;;;;5050987;28;20198;-78
2024/03/23 04:26:22;;;;;;;15.17;7.40;;;6.50;99.90;;;;;;5048832;28;20660;-78
2024/03/23 04:28:48;;;;;;;11.20;3.83;;;6.50;99.90;;;;;;5056255;28;20259;-77
2024/03/23 04:31:14;;;;;;;9.07;3.63;;;6.50;99.90;;;;;;5044017;28;20258;-77
2024/03/23 04:33:41;;;;;;;9.00;4.03;;;6.50;99.90;;;;;;5061986;28;20225;-77
2024/03/23 04:36:07;;;;;;;7.07;3.13;;;6.50;99.90;;;;;;5047407;28;20698;-77
2024/03/23 04:38:34;;;;;;;7.23;3.40;;;6.60;99.90;;;;;;5055542;28;20204;-77
2024/03/23 04:41:03;;;;;;;7.93;3.43;;;6.60;99.90;;;;;;5052152;28;20233;-78
2024/03/23 04:43:30;;;;;;;6.27;3.27;;;6.50;99.90;;;;;;5054837;28;20517;-78
2024/03/23 04:45:57;;;;;;;9.70;3.70;;;6.60;99.90;;;;;;5062656;28;20242;-78
2024/03/23 04:48:25;;;;;;;9.97;3.00;;;6.50;99.90;;;;;;5050790;28;20230;-77
2024/03/23 04:50:57;;;;;;;10.37;3.70;;;6.50;99.90;;;;;;5048547;28;20203;-77
2024/03/23 04:53:27;;;;;;;15.80;5.03;;;6.50;99.90;;;;;;5039383;28;20608;-78
2024/03/23 04:55:54;;;;;;;8.80;3.40;;;6.50;99.90;;;;;;5044041;28;20565;-77
2024/03/23 04:58:22;;;;;;;9.67;2.40;;;6.40;99.90;;;;;;5039785;28;20745;-78
2024/03/23 05:00:53;;;;;;;8.60;2.97;;;6.50;99.90;;;;;;5040922;28;20579;-78
2024/03/23 05:03:21;;;;;;;12.73;4.90;;;6.40;99.90;;;;;;5040730;28;20800;-78
2024/03/23 05:05:47;;;;;;;9.83;3.53;;;6.50;99.90;;;;;;5052761;28;20206;-78
2024/03/23 05:08:13;;;;;;;9.50;2.87;;;6.40;99.90;;;;;;5045612;28;20553;-78
2024/03/23 05:10:40;;;;;;;6.47;2.83;;;6.40;99.90;;;;;;5050475;28;20667;-77
2024/03/23 05:13:07;;;;;;;12.10;3.77;;;6.40;99.90;;;;;;5046972;28;20229;-77
2024/03/23 05:15:35;;;;;;;8.90;3.30;;;6.40;99.90;;;;;;5043092;28;20207;-77
2024/03/23 05:18:02;;;;;;;11.43;3.10;;;6.40;99.90;;;;;;5041736;28;20211;-77
2024/03/23 05:20:28;;;;;;;14.13;3.47;;;6.40;99.90;;;;;;5045587;28;20661;-77
2024/03/23 05:22:56;;;;;;;13.87;3.50;;;6.40;99.90;;;;;;5052252;28;20275;-78
2024/03/23 05:25:22;;;;;;;7.53;2.83;;;6.30;99.90;;;;;;5047276;28;20260;-78
2024/03/23 05:27:50;;;;;;;9.03;3.33;;;6.40;99.90;;;;;;5049425;28;20299;-78
2024/03/23 05:30:16;;;;;;;5.50;3.17;;;6.40;99.90;;;;;;5042929;28;20552;-78
2024/03/23 05:32:44;;;;;;;6.90;2.73;;;6.50;99.90;;;;;;5049413;28;20306;-78
2024/03/23 05:35:10;;;;;;;9.30;3.30;;;6.40;99.90;;;;;;5046019;28;20242;-78
2024/03/23 05:37:37;;;;;;;10.07;3.50;;;6.60;99.90;;;;;;5042886;28;20230;-77
2024/03/23 05:40:04;;;;;;;8.07;3.30;;;6.40;99.90;;;;;;5052577;28;20619;-77
2024/03/23 05:42:31;;;;;;;11.23;3.30;;;6.50;99.90;;;;;;5054417;28;20218;-80
2024/03/23 05:44:57;;;;;;;7.47;2.93;;;6.40;99.90;;;;;;5058064;28;20213;-78
2024/03/23 05:47:24;;;;;;;11.67;3.30;;;6.30;99.90;;;;;;5045346;28;20581;-78
2024/03/23 05:49:52;;;;;;;12.13;3.07;;;6.30;99.90;;;;;;5048448;28;20234;-77
2024/03/23 05:52:20;;;;;;;8.97;3.17;;;6.10;99.90;;;;;;5045698;28;20313;-77
2024/03/23 05:54:46;;;;;;;8.23;3.20;;;6.00;99.90;;;;;;5046923;28;20664;-77
2024/03/23 05:57:13;;;;;;;11.67;3.40;;;6.10;99.90;;;;;;5039149;28;20204;-77
2024/03/23 05:59:39;;;;;;;8.23;2.50;;;6.10;99.90;;;;;;5045747;28;20582;-77
2024/03/23 06:02:07;;;;;;;11.90;2.13;;;6.20;99.90;;;;;;5043332;28;20219;-77
2024/03/23 06:04:33;;;;;;;7.80;2.60;;;6.10;99.90;;;;;;5045193;28;20203;-76
2024/03/23 06:07:01;;;;;;;10.73;3.10;;;6.10;99.90;;;;;;5049791;28;20192;-77
2024/03/23 06:09:31;;;;;;;6.33;1.80;;;6.00;99.90;;;;;;5043668;28;20271;-77
2024/03/23 06:11:57;;;;;;;6.07;1.50;;;6.00;99.90;;;;;;5040906;28;20255;-77
2024/03/23 06:14:24;;;;;;;6.73;2.00;;;6.00;99.90;;;;;;5043591;28;20199;-77
2024/03/23 06:16:50;;;;;;;9.03;1.80;;;6.10;99.90;;;;;;5043276;28;20237;-77
2024/03/23 06:19:17;;;;;;;13.97;2.30;;;6.10;99.90;;;;;;5042265;28;20238;-77
2024/03/23 06:21:43;;;;;;;9.37;2.33;;;6.10;99.90;;;;;;5052979;28;20301;-78
2024/03/23 06:24:12;;;;;;;7.47;1.90;;;6.20;99.90;;;;;;5051656;28;20226;-78
2024/03/23 06:26:38;;;;;;;8.47;2.10;;;6.20;99.90;;;;;;5052491;28;20293;-78
2024/03/23 06:29:05;;;;;;;9.20;1.90;;;6.30;99.90;;;;;;5054300;28;20286;-78
2024/03/23 06:31:31;;;;;;;8.00;1.87;;;6.30;99.90;;;;;;5053755;28;20228;-78
2024/03/23 06:33:58;;;;;;;15.93;4.87;;;6.30;99.90;;;;;;5061814;28;20692;-77
2024/03/23 06:36:24;;;;;;;15.03;3.60;;;6.20;99.90;;;;;;5055800;28;20242;-77
2024/03/23 06:38:52;;;;;;;10.93;3.00;;;6.10;99.90;;;;;;5052888;28;20226;-77
2024/03/23 06:41:19;;;;;;;8.27;4.03;;;6.20;99.90;;;;;;5058649;28;20206;-77
2024/03/23 06:43:46;;;;;;;10.70;2.57;;;6.20;99.90;;;;;;5060980;28;20749;-77
2024/03/23 06:46:12;;;;;;;11.97;3.07;;;6.30;99.90;;;;;;5044521;28;20302;-77
2024/03/23 06:48:39;;;;;;;10.30;3.43;;;6.30;99.90;;;;;;5061418;28;20295;-77
2024/03/23 06:51:06;;;;;;;6.53;2.53;;;6.20;99.90;;;;;;5052088;28;20294;-77
2024/03/23 06:53:33;;;;;;;8.33;2.27;;;6.10;99.90;;;;;;5053378;28;20218;-77
2024/03/23 06:56:00;;;;;;;9.70;2.30;;;6.20;99.90;;;;;;5052873;28;20288;-77
2024/03/23 06:58:29;;;;;;;11.77;2.50;;;6.20;99.90;;;;;;5046582;28;20198;-77
2024/03/23 07:00:55;;;;;;;12.53;2.67;;;6.20;99.90;;;;;;5048314;28;20277;-77
2024/03/23 07:03:22;;;;;;;7.87;2.40;;;6.20;99.90;;;;;;5044041;28;21590;-78
2024/03/23 07:05:48;;;;;;;11.10;2.20;;;6.20;99.90;;;;;;5030969;28;20588;-77
2024/03/23 07:08:20;;;;;;;14.03;5.03;;;6.10;99.90;;;;;;5033832;28;20245;-77
2024/03/23 07:10:46;;;;;;;17.93;7.50;;;6.20;99.90;;;;;;5040775;28;20260;-77
2024/03/23 07:13:13;;;;;;;10.50;2.80;;;6.20;99.90;;;;;;5038174;28;20415;-77
2024/03/23 07:15:41;;;;;;;9.07;2.03;;;6.20;99.90;;;;;;5048928;28;20289;-77
2024/03/23 07:18:08;;;;;;;11.87;2.70;;;6.20;99.90;;;;;;5047689;28;20735;-77
2024/03/23 07:20:34;;;;;;;9.00;2.10;;;6.10;99.90;;;;;;5039541;28;20249;-77
2024/03/23 07:23:01;;;;;;;7.87;3.60;;;6.20;99.90;;;;;;5045160;28;20672;-77
2024/03/23 07:25:29;;;;;;;9.83;2.80;;;6.30;99.90;;;;;;5044814;28;20227;-78
2024/03/23 07:27:56;;;;;;;9.50;3.07;;;6.40;99.90;;;;;;5047512;28;20220;-77
2024/03/23 07:30:22;;;;;;;11.10;2.50;;;6.40;99.90;;;;;;5047610;28;20239;-77
2024/03/23 07:32:50;;;;;;;10.03;2.43;;;6.40;99.90;;;;;;5052739;28;20284;-77
2024/03/23 07:35:16;;;;;;;10.10;2.30;;;6.50;99.90;;;;;;5046026;28;20747;-77
2024/03/23 07:37:43;;;;;;;19.57;4.90;;;6.50;99.90;;;;;;5049720;28;20238;-77
2024/03/23 07:40:11;;;;;;;6.17;2.30;;;6.50;99.90;;;;;;5060303;28;20211;-77
2024/03/23 07:42:38;;;;;;;7.20;2.43;;;6.60;99.90;;;;;;5060403;28;20579;-77
2024/03/23 07:45:05;;;;;;;8.87;2.27;;;6.60;99.90;;;;;;5063467;28;20226;-77
2024/03/23 07:47:32;;;;;;;11.37;2.87;;;6.70;99.90;;;;;;5051417;28;20747;-77
2024/03/23 07:49:59;;;;;;;10.20;3.40;;;6.90;99.90;;;;;;5051676;28;20198;-77
2024/03/23 07:52:29;;;;;;;9.23;2.40;;;6.80;99.90;;;;;;5059021;28;20234;-78
2024/03/23 07:54:55;;;;;;;12.50;3.03;;;6.80;99.90;;;;;;5056123;28;20195;-77
2024/03/23 07:57:22;;;;;;;9.67;2.70;;;6.80;99.90;;;;;;5050292;28;20630;-78
2024/03/23 07:59:48;;;;;;;13.43;3.50;;;6.80;99.90;;;;;;5064892;28;20239;-77
2024/03/23 08:02:15;;;;;;;10.97;3.27;;;6.80;99.90;;;;;;5064962;28;20295;-77
2024/03/23 08:04:41;;;;;;;8.37;3.20;;;6.70;99.90;;;;;;5054012;28;20198;-77
2024/03/23 08:07:09;;;;;;;10.07;2.73;;;6.70;99.90;;;;;;5057828;28;20237;-77
2024/03/23 08:09:35;;;;;;;7.40;2.97;;;6.70;99.90;;;;;;5054310;28;20199;-77
2024/03/23 08:12:02;;;;;;;6.80;2.83;;;6.60;99.90;;;;;;5058135;28;20472;-77
2024/03/23 08:14:28;;;;;;;8.10;3.03;;;6.70;99.90;;;;;;5056571;28;20217;-78
2024/03/23 08:16:56;;;;;;;10.63;3.20;;;6.70;99.90;;;;;;5051824;28;20297;-77
2024/03/23 08:19:22;;;;;;;9.03;3.20;;;6.80;99.90;;;;;;5052034;28;20246;-77
2024/03/23 08:21:50;;;;;;;6.70;3.60;;;6.80;99.90;;;;;;5056888;28;20230;-77
2024/03/23 08:24:17;;;;;;;13.70;4.87;;;6.90;99.90;;;;;;5045136;28;20215;-76
2024/03/23 08:26:44;;;;;;;15.40;5.23;;;7.00;99.90;;;;;;5056169;28;20720;-77
2024/03/23 08:29:10;;;;;;;19.40;7.60;;;7.10;99.90;;;;;;5059503;28;20206;-77
2024/03/23 08:31:37;;;;;;;17.43;6.33;;;7.20;99.90;;;;;;5058433;28;20216;-77
2024/03/23 08:34:02;;;;;;;12.30;5.73;;;7.30;99.90;;;;;;5050518;28;20279;-77
2024/03/23 08:36:30;;;;;;;15.70;5.50;;;7.30;99.90;;;;;;5057702;28;20195;-77
2024/03/23 08:38:56;;;;;;;15.30;5.33;;;7.40;99.90;;;;;;5058206;28;20207;-77
2024/03/23 08:41:24;;;;;;;19.90;6.57;;;7.50;99.90;;;;;;5057677;28;20248;-77
2024/03/23 08:43:51;;;;;;;20.27;7.67;;;7.70;99.90;;;;;;5058939;28;20265;-77
2024/03/23 08:46:18;;;;;;;18.90;7.53;;;7.80;99.90;;;;;;5064102;28;20201;-76
2024/03/23 08:48:45;;;;;;;20.87;7.70;;;8.10;99.90;;;;;;5065298;28;20206;-77
2024/03/23 08:51:14;;;;;;;20.90;7.93;;;8.20;99.90;;;;;;5062562;28;20677;-77
2024/03/23 08:53:40;;;;;;;25.63;8.10;;;8.20;1.00;;;;;;5060755;28;20293;-77
2024/03/23 08:56:08;;;;;;;22.33;7.70;;;8.50;1.00;;;;;;5056944;28;20194;-77
2024/03/23 08:58:37;;;;;;;22.27;8.10;;;8.70;1.00;;;;;;5054196;28;20238;-78
2024/03/23 09:01:06;;;;;;;15.57;7.17;;;9.10;99.90;;;;;;5056445;28;20209;-78
2024/03/23 09:03:32;;;;;;;16.07;6.30;;;9.20;1.00;;;;;;5058022;28;20195;-77
2024/03/23 09:05:59;;;;;;;15.10;6.10;;;9.20;48.00;;;;;;5056048;28;20203;-78
2024/03/23 09:08:25;;;;;;;21.17;6.70;;;9.70;1.00;;;;;;5067173;28;20225;-77
2024/03/23 09:10:53;;;;;;;14.57;5.40;;;9.70;99.90;;;;;;5059848;28;20199;-78
2024/03/23 09:13:19;;;;;;;16.27;5.77;;;9.40;99.90;;;;;;5057369;28;20641;-77
2024/03/23 09:15:54;;;;;;;16.03;5.87;;;9.30;1.00;;;;;;5065032;28;20202;-77
2024/03/23 09:18:20;;;;;;;15.03;5.13;;;9.40;1.00;;;;;;5050924;28;20238;-78
2024/03/23 09:20:47;;;;;;;12.50;5.23;;;9.10;1.00;;;;;;5049249;28;20237;-77
2024/03/23 09:23:13;;;;;;;13.67;4.53;;;8.70;1.00;;;;;;5056496;28;20313;-78
2024/03/23 09:25:40;;;;;;;11.50;4.73;;;8.50;1.00;;;;;;5053432;28;20729;-78
2024/03/23 09:28:08;;;;;;;14.87;4.97;;;8.40;1.00;;;;;;5049121;28;20612;-77
2024/03/23 09:30:35;;;;;;;17.57;6.07;;;8.40;1.00;;;;;;5052949;28;20286;-77
2024/03/23 09:33:03;;;;;;;16.83;5.97;;;8.80;1.00;;;;;;5046421;28;20652;-78
2024/03/23 09:35:30;;;;;;;17.40;5.70;;;9.30;1.00;;;;;;5055334;28;20644;-77
2024/03/23 09:37:57;;;;;;;14.87;5.33;;;9.80;1.00;;;;;;5059990;28;20226;-78
2024/03/23 09:40:24;;;;;;;14.43;5.30;;;10.10;1.00;;;;;;5049387;28;20199;-78
2024/03/23 09:42:51;;;;;;;11.90;4.83;;;9.80;99.90;;;;;;5064000;28;20344;-78
2024/03/23 09:45:22;;;;;;;15.97;5.23;;;9.80;1.00;;;;;;5055680;28;20202;-78
2024/03/23 09:47:49;;;;;;;15.13;5.03;;;9.70;1.00;;;;;;5053128;28;20206;-78
2024/03/23 09:50:17;;;;;;;14.70;4.50;;;9.60;1.00;;;;;;5058337;28;20250;-78
2024/03/23 09:52:45;;;;;;;15.73;5.57;;;9.30;1.00;;;;;;5047062;28;20772;-78
2024/03/23 09:55:12;;;;;;;21.83;5.63;;;9.10;1.00;;;;;;5052534;28;20198;-78
2024/03/23 09:57:39;;;;;;;13.43;5.37;;;8.90;1.00;;;;;;5052760;28;20207;-78
2024/03/23 10:00:07;;;;;;;13.47;4.77;;;8.80;1.00;;;;;;5057631;28;20582;-78
2024/03/23 10:02:34;;;;;;;13.90;4.03;;;8.70;1.00;;;;;;5057660;28;20257;-78
2024/03/23 10:05:01;;;;;;;14.33;3.43;;;8.60;1.00;;;;;;5061286;28;20199;-78
2024/03/23 10:07:28;;;;;;;10.93;3.50;;;8.40;99.90;;;;;;5062326;28;20238;-78
2024/03/23 10:09:56;;;;;;;12.27;4.07;;;8.60;99.90;;;;;;5059769;28;20206;-77
2024/03/23 10:12:24;;;;;;;14.47;4.43;;;9.40;99.90;;;;;;5066839;28;20246;-78
2024/03/23 10:14:51;;;;;;;10.40;3.43;;;10.00;99.90;;;;;;5058549;28;20218;-78
2024/03/23 10:17:18;;;;;;;11.20;3.87;;;10.20;99.90;;;;;;5049813;28;20238;-78
2024/03/23 10:19:45;;;;;;;11.00;3.70;;;10.40;1.00;;;;;;5054390;28;20195;-79
2024/03/23 10:22:17;;;;;;;10.27;4.10;;;10.10;1.00;;;;;;5050635;28;20231;-79
2024/03/23 10:24:45;;;;;;;11.27;4.20;;;9.70;1.00;;;;;;5055579;28;20209;-78
2024/03/23 10:27:16;;;;;;;12.23;4.70;;;9.50;1.00;;;;;;5042079;28;20257;-77
2024/03/23 10:29:44;;;;;;;11.77;4.57;;;9.30;1.00;;;;;;5052760;28;20580;-78
2024/03/23 10:32:10;;;;;;;10.40;3.97;;;9.80;1.00;;;;;;5056912;28;20265;-78
2024/03/23 10:34:38;;;;;;;15.17;4.00;;;10.40;1.00;;;;;;5051755;28;20658;-78
2024/03/23 10:37:05;;;;;;;14.53;5.10;;;10.90;1.00;;;;;;5055332;28;20298;-78
2024/03/23 10:39:36;;;;;;;16.43;5.80;;;11.30;1.00;;;;;;5060132;28;20195;-78
2024/03/23 10:42:07;;;;;;;16.50;7.33;;;11.20;1.00;;;;;;5057296;28;20299;-78
2024/03/23 10:44:35;;;;;;;17.23;6.97;;;11.20;1.00;;;;;;5054642;28;20262;-78
2024/03/23 10:47:02;;;;;;;10.40;3.80;;;11.50;99.90;;;;;;5064821;28;20621;-78
2024/03/23 10:49:30;;;;;;;10.23;4.53;;;11.30;99.90;;;;;;5065556;28;20290;-78
2024/03/23 10:52:00;;;;;;;14.10;5.00;;;11.10;99.90;;;;;;5058111;28;20693;-78
2024/03/23 10:54:27;;;;;;;15.43;4.43;;;11.00;99.90;;;;;;5056182;28;20214;-77
2024/03/23 10:56:59;;;;;;;5.37;2.53;;;10.40;99.90;;;;;;5051234;28;20272;-78
2024/03/23 10:59:30;;;;;;;7.80;2.40;;;9.50;99.90;;;;;;5051954;28;20221;-78
2024/03/23 11:01:56;;;;;;;6.57;2.60;;;8.90;99.90;;;;;;5053629;28;20841;-78
2024/03/23 11:04:34;;;;;;;6.10;3.07;;;8.70;1.00;;;;;;5050223;28;20199;-78
2024/03/23 11:07:00;;;;;;;4.50;2.50;;;8.80;1.00;;;;;;5060274;28;20679;-79
2024/03/23 11:09:41;;;;;;;8.17;3.00;;;9.00;1.00;;;;;;5057539;28;20195;-79
2024/03/23 11:12:31;;;;;;;6.33;2.47;;;9.20;1.00;;;;;;5063274;28;20219;-79
2024/03/23 11:15:03;;;;;;;5.93;2.80;;;9.30;1.00;;;;;;5045610;28;20297;-78
2024/03/23 11:17:29;;;;;;;11.33;3.47;;;10.00;1.00;;;;;;5058645;28;20199;-78
2024/03/23 11:19:57;;;;;;;4.80;3.00;;;10.30;1.00;;;;;;5059760;28;20257;-79
2024/03/23 11:22:44;;;;;;;6.70;3.20;;;10.50;1.00;;;;;;5056337;28;20241;-79
2024/03/23 11:25:18;;;;;;;7.47;3.93;;;10.70;1.00;;;;;;5050527;28;20222;-79
2024/03/23 11:27:46;;;;;;;10.37;3.80;;;11.00;1.00;;;;;;5050491;28;20680;-82
2024/03/23 11:30:15;;;;;;;8.27;3.90;;;11.10;1.00;;;;;;5056424;28;20699;-80
2024/03/23 11:32:43;;;;;;;9.50;3.70;;;11.00;99.90;;;;;;5050997;28;20219;-79
2024/03/23 11:35:09;;;;;;;9.87;3.70;;;10.50;99.90;;;;;;5054771;28;20231;-78
2024/03/23 11:37:37;;;;;;;5.53;3.30;;;10.20;99.90;;;;;;5050713;28;20250;-80
2024/03/23 11:40:20;;;;;;;5.60;3.00;;;9.00;99.90;;;;;;5069642;28;20229;-80
2024/03/23 11:42:46;;;;;;;5.93;2.63;;;7.90;99.90;;;;;;5054896;28;20233;-78
2024/03/23 11:45:16;;;;;;;6.77;3.00;;;7.40;99.90;;;;;;5058209;28;20199;-78
2024/03/23 11:47:43;;;;;;;7.20;3.77;;;7.70;99.90;;;;;;5058796;28;20252;-78
2024/03/23 11:50:09;;;;;;;5.50;3.03;;;8.10;1.00;;;;;;5051891;28;20231;-78
2024/03/23 11:52:37;;;;;;;5.63;3.07;;;9.00;1.00;;;;;;5053210;28;20781;-79
2024/03/23 11:55:07;;;;;;;6.83;3.50;;;9.10;1.00;;;;;;5049956;28;20754;-80
2024/03/23 11:57:35;;;;;;;7.40;3.40;;;8.90;1.00;;;;;;5053828;28;20201;-79
2024/03/23 12:00:01;;;;;;;7.00;3.10;;;8.70;99.90;;;;;;5053402;28;20242;-79
2024/03/23 12:02:30;;;;;;;7.23;2.90;;;9.00;1.00;;;;;;5055211;28;20258;-79
2024/03/23 12:04:56;;;;;;;10.97;4.07;;;9.00;1.00;;;;;;5060285;28;20795;-79
2024/03/23 12:07:23;;;;;;;8.10;3.53;;;9.60;1.00;;;;;;5053592;28;20661;-79
2024/03/23 12:10:03;;;;;;;10.63;4.33;;;9.60;1.00;;;;;;5056415;28;20256;-79
2024/03/23 12:12:30;;;;;;;10.93;3.97;;;9.30;99.90;;;;;;5052007;28;20701;-78
2024/03/23 12:15:05;;;;;;;8.63;3.40;;;9.00;1.00;;;;;;5056728;28;20206;-79
2024/03/23 12:17:34;;;;;;;9.33;3.67;;;8.30;1.00;;;;;;5062330;28;20237;-78
2024/03/23 12:20:00;;;;;;;10.50;4.50;;;7.40;1.00;;;;;;5058806;28;20214;-78
2024/03/23 12:22:29;;;;;;;9.37;4.23;;;6.90;99.90;;;;;;5056637;28;20223;-78
2024/03/23 12:24:55;;;;;;;8.83;3.30;;;6.90;1.00;;;;;;5058067;28;20256;-77
2024/03/23 12:27:22;;;;;;;5.80;2.37;;;6.60;1.00;;;;;;5049991;28;20728;-78
2024/03/23 12:29:48;;;;;;;8.63;3.77;;;6.40;99.90;;;;;;5055019;28;20269;-78
2024/03/23 12:32:16;;;;;;;8.20;4.03;;;7.10;99.90;;;;;;5051836;28;20657;-79
2024/03/23 12:34:43;;;;;;;6.33;3.10;;;7.80;1.00;;;;;;5062595;28;20218;-78
2024/03/23 12:37:10;;;;;;;3.20;2.70;;;8.30;1.00;;;;;;5057626;28;20716;-78
2024/03/23 12:39:36;;;;;;;5.87;2.87;;;8.60;1.00;;;;;;5061741;28;20239;-78
2024/03/23 12:42:04;;;;;;;7.17;2.70;;;8.30;99.90;;;;;;5059006;28;20234;-78
2024/03/23 12:44:30;;;;;;;6.07;2.77;;;8.40;1.00;;;;;;5062358;28;20195;-78
2024/03/23 12:46:57;;;;;;;3.80;2.67;;;8.10;99.90;;;;;;5058938;28;20194;-78
2024/03/23 12:49:23;;;;;;;7.47;3.43;;;7.90;99.90;;;;;;5058350;28;20203;-78
2024/03/23 12:51:57;;;;;;;4.83;3.20;;;7.90;1.00;;;;;;5060761;28;20223;-79
2024/03/23 12:54:23;;;;;;;6.57;3.07;;;7.80;99.90;;;;;;5056503;28;20219;-78